»·PEaware :: N212MH 8W5-KMYL

N212MH :: 8W5-KMYL

FLIGHT INFORMATION

Flight Status: Arrived
Operator: Privately registered:
United States
More flights under this callsign
Pilot: Erik A. (17503)
Aircraft: AERMACCHI WARRIOR
(F260)
More flights by this aircraft type
Origin: 8W5 Apex Airpark
United States
Destination: KMYL McCall
United States
More flights between these airports :: More routes between these airports
Route: SEA V4 BKE KOVRY JALUL
File this flight plan on PilotEdge
Remarks: Relocation before PilotEdge Birthday Bash!
Altitude:
(Current/Filed)
11,000ft
Speed:
(Current/Filed)
180kts
Departed: 09-Oct-20 12:02 PM
Arrived: 09-Oct-20 02:09 PM
Distance/Time
Traveled:
321nm/2:07
Distance/Time
To Go:
Arrived

Flight Plot

Page will automatically refresh every two minutes.

Flight plan parsing failed; only flown route is shown


Map Options




Map Legend


Flown Route
Filed Route
Departure Airport
Arrival Airport
Navaid (VOR, NDB)
Fix

Horizontal Profiles

Position Reports

Time Latitude Longitude Heading Altitude Ground
Speed
09-Oct-20 11:39 47.659692 -122.733084 103 524ft 0kts
09-Oct-20 11:40 47.659692 -122.733084 103 524ft 0kts
09-Oct-20 11:41 47.659692 -122.733084 103 524ft 0kts
09-Oct-20 11:42 47.659692 -122.733084 103 524ft 0kts
09-Oct-20 11:43 47.659692 -122.733084 103 524ft 0kts
09-Oct-20 11:44 47.659692 -122.733084 103 524ft 0kts
09-Oct-20 11:45 47.659692 -122.733084 103 524ft 0kts
09-Oct-20 11:46 47.659692 -122.733084 103 524ft 0kts
09-Oct-20 11:47 47.659692 -122.733084 103 524ft 0kts
09-Oct-20 11:48 47.659692 -122.733084 103 524ft 0kts
09-Oct-20 11:49 47.659692 -122.733084 103 524ft 0kts
09-Oct-20 11:50 47.659692 -122.733084 103 524ft 0kts
09-Oct-20 11:51 47.659692 -122.733084 103 524ft 0kts
09-Oct-20 11:52 47.659692 -122.733084 103 524ft 0kts
09-Oct-20 11:53 47.659692 -122.733084 103 524ft 0kts
09-Oct-20 11:54 47.659692 -122.733083 103 524ft 0kts
09-Oct-20 11:55 47.660051 -122.732829 85 523ft 3kts
09-Oct-20 11:56 47.660042 -122.732721 98 523ft 0kts
09-Oct-20 11:57 47.660042 -122.732721 98 523ft 0kts
09-Oct-20 11:58 47.660042 -122.732721 98 523ft 0kts
09-Oct-20 11:59 47.660042 -122.732721 98 523ft 0kts
09-Oct-20 12:00 47.660005 -122.732472 127 524ft 1kts
09-Oct-20 12:01 47.656151 -122.733214 192 533ft 78kts
09-Oct-20 12:02 47.634682 -122.722739 115 2048ft 114kts
09-Oct-20 12:03 47.625357 -122.681475 119 3643ft 93kts
09-Oct-20 12:04 47.613278 -122.645547 132 4895ft 93kts
09-Oct-20 12:05 47.597898 -122.616467 136 6204ft 89kts
09-Oct-20 12:07 47.579888 -122.583444 140 7289ft 102kts
09-Oct-20 12:08 47.561735 -122.547154 140 8332ft 105kts
09-Oct-20 12:09 47.542263 -122.511727 125 9258ft 119kts
09-Oct-20 12:10 47.523511 -122.469898 139 10105ft 119kts
09-Oct-20 12:11 47.501649 -122.428448 149 10831ft 124kts
09-Oct-20 12:12 47.476282 -122.386678 139 11461ft 134kts
09-Oct-20 12:13 47.451926 -122.332171 129 11409ft 171kts
09-Oct-20 12:14 47.424281 -122.273468 143 11349ft 170kts
09-Oct-20 12:15 47.395299 -122.215865 127 11168ft 186kts
09-Oct-20 12:16 47.370228 -122.149777 125 11047ft 187kts
09-Oct-20 12:17 47.341837 -122.085428 129 10901ft 183kts
09-Oct-20 12:18 47.313103 -122.024268 137 10792ft 177kts
09-Oct-20 12:19 47.284043 -121.961467 134 10854ft 178kts
09-Oct-20 12:20 47.253782 -121.900502 133 10931ft 174kts
09-Oct-20 12:21 47.226291 -121.836730 131 11156ft 181kts
09-Oct-20 12:21 47.198830 -121.787574 138 11179ft 187kts
09-Oct-20 12:23 47.161592 -121.712853 135 11186ft 179kts
09-Oct-20 12:23 47.139608 -121.657430 121 11320ft 186kts
09-Oct-20 12:25 47.107071 -121.582687 134 11326ft 193kts
09-Oct-20 12:25 47.080806 -121.527448 130 11114ft 189kts
09-Oct-20 12:26 47.050209 -121.462272 131 11053ft 197kts
09-Oct-20 12:27 47.020022 -121.395005 135 11169ft 182kts
09-Oct-20 12:28 46.991035 -121.327145 124 11100ft 190kts
09-Oct-20 12:29 46.969404 -121.255708 118 10896ft 202kts
09-Oct-20 12:30 46.938275 -121.188871 134 11067ft 182kts
09-Oct-20 12:31 46.907109 -121.127833 133 11123ft 187kts
09-Oct-20 12:32 46.876785 -121.064526 134 11123ft 185kts
09-Oct-20 12:33 46.844836 -121.003815 136 11177ft 187kts
09-Oct-20 12:34 46.812325 -120.939712 132 10782ft 190kts
09-Oct-20 12:35 46.782051 -120.879967 135 10896ft 180kts
09-Oct-20 12:36 46.752518 -120.821807 132 11042ft 178kts
09-Oct-20 12:37 46.724672 -120.759613 129 10962ft 186kts
09-Oct-20 12:38 46.692998 -120.700936 134 10894ft 185kts
09-Oct-20 12:39 46.663458 -120.639957 129 10891ft 185kts
09-Oct-20 12:40 46.634635 -120.577403 131 10855ft 185kts
09-Oct-20 12:41 46.605248 -120.516082 131 10860ft 183kts
09-Oct-20 12:42 46.575628 -120.453970 131 10817ft 185kts
09-Oct-20 12:43 46.544262 -120.395606 137 10863ft 181kts
09-Oct-20 12:44 46.511734 -120.339293 137 10854ft 182kts
09-Oct-20 12:45 46.479553 -120.282673 136 10818ft 182kts
09-Oct-20 12:46 46.447381 -120.226075 137 10841ft 180kts
09-Oct-20 12:47 46.415345 -120.169388 136 10821ft 182kts
09-Oct-20 12:48 46.383133 -120.112812 136 10824ft 181kts
09-Oct-20 12:49 46.350928 -120.056504 136 10818ft 182kts
09-Oct-20 12:50 46.318504 -119.999753 137 10802ft 182kts
09-Oct-20 12:51 46.286137 -119.943420 136 10810ft 183kts
09-Oct-20 12:52 46.253574 -119.886739 136 10806ft 183kts
09-Oct-20 12:53 46.221346 -119.830382 136 10830ft 182kts
09-Oct-20 12:54 46.188777 -119.774149 136 10828ft 182kts
09-Oct-20 12:55 46.156140 -119.717700 136 10833ft 183kts
09-Oct-20 12:56 46.123590 -119.661338 136 10839ft 182kts
09-Oct-20 12:57 46.091041 -119.605190 136 10850ft 182kts
09-Oct-20 12:58 46.058617 -119.549206 136 10846ft 182kts
09-Oct-20 12:59 46.026002 -119.493309 136 10846ft 182kts
09-Oct-20 13:00 45.993344 -119.437276 136 10844ft 182kts
09-Oct-20 13:01 45.960802 -119.381893 136 10848ft 181kts
09-Oct-20 13:02 45.930000 -119.328108 137 11268ft 179kts
09-Oct-20 13:03 45.897104 -119.269364 135 10983ft 192kts
09-Oct-20 13:04 45.860889 -119.215046 132 10972ft 193kts
09-Oct-20 13:05 45.828620 -119.154503 139 11092ft 186kts
09-Oct-20 13:06 45.794793 -119.098317 136 10809ft 201kts
09-Oct-20 13:07 45.759173 -119.039086 142 10842ft 196kts
09-Oct-20 13:08 45.727193 -118.982268 128 11070ft 180kts
09-Oct-20 13:09 45.695120 -118.925333 140 10933ft 183kts
09-Oct-20 13:10 45.660021 -118.873724 140 11003ft 178kts
09-Oct-20 13:11 45.625384 -118.825402 140 11198ft 176kts
09-Oct-20 13:12 45.587948 -118.776556 149 11151ft 179kts
09-Oct-20 13:13 45.548434 -118.723834 139 11102ft 180kts
09-Oct-20 13:14 45.509158 -118.672898 145 11165ft 177kts
09-Oct-20 13:15 45.468920 -118.622109 144 11198ft 179kts
09-Oct-20 13:16 45.427833 -118.574477 134 11286ft 182kts
09-Oct-20 13:17 45.389911 -118.520358 139 11168ft 191kts
09-Oct-20 13:18 45.350417 -118.462206 140 11136ft 185kts
09-Oct-20 13:19 45.309448 -118.407061 155 10941ft 182kts
09-Oct-20 13:20 45.270156 -118.354377 138 11235ft 172kts
09-Oct-20 13:21 45.227262 -118.309098 147 11135ft 176kts
09-Oct-20 13:22 45.188163 -118.256011 142 11130ft 178kts
09-Oct-20 13:23 45.147040 -118.206771 142 11064ft 183kts
09-Oct-20 13:24 45.110952 -118.153988 140 11055ft 182kts
09-Oct-20 13:25 45.070981 -118.111534 149 11146ft 172kts
09-Oct-20 13:26 45.035862 -118.061533 133 11077ft 182kts
09-Oct-20 13:27 45.003139 -118.007072 130 11059ft 183kts
09-Oct-20 13:28 44.967687 -117.957776 146 11092ft 177kts
09-Oct-20 13:29 44.929420 -117.914808 149 11190ft 175kts
09-Oct-20 13:30 44.891314 -117.870540 144 11160ft 181kts
09-Oct-20 13:31 44.854716 -117.820989 127 11144ft 183kts
09-Oct-20 13:32 44.861550 -117.746522 78 11194ft 193kts
09-Oct-20 13:33 44.872596 -117.669603 78 11201ft 195kts
09-Oct-20 13:34 44.892702 -117.593384 69 11213ft 195kts
09-Oct-20 13:35 44.911715 -117.520621 68 11009ft 202kts
09-Oct-20 13:36 44.930405 -117.445578 67 10976ft 197kts
09-Oct-20 13:37 44.952398 -117.371061 66 11015ft 193kts
09-Oct-20 13:38 44.974327 -117.299035 65 11002ft 192kts
09-Oct-20 13:39 44.995132 -117.228854 66 11094ft 189kts
09-Oct-20 13:40 45.017679 -117.157529 67 11049ft 194kts
09-Oct-20 13:41 45.038731 -117.084226 67 11119ft 191kts
09-Oct-20 13:42 45.059562 -117.010429 72 11119ft 191kts
09-Oct-20 13:43 45.071847 -116.932133 73 10934ft 196kts
09-Oct-20 13:44 45.091578 -116.858868 63 11043ft 189kts
09-Oct-20 13:45 45.116438 -116.791533 55 11128ft 189kts
09-Oct-20 13:46 45.133909 -116.715679 76 11105ft 191kts
09-Oct-20 13:47 45.153883 -116.637736 67 11116ft 193kts
09-Oct-20 13:48 45.174665 -116.563630 65 11228ft 183kts
09-Oct-20 13:49 45.195256 -116.497587 66 11904ft 176kts
09-Oct-20 13:50 45.214795 -116.426339 74 12006ft 191kts
09-Oct-20 13:51 45.217071 -116.344477 92 11896ft 199kts
09-Oct-20 13:52 45.218734 -116.261606 92 11356ft 206kts
09-Oct-20 13:53 45.212362 -116.178995 95 10962ft 202kts
09-Oct-20 13:54 45.211634 -116.099218 94 10830ft 192kts
09-Oct-20 13:55 45.208833 -116.021318 94 10987ft 189kts
09-Oct-20 13:56 45.244728 -115.972633 10 10960ft 185kts
09-Oct-20 13:57 45.298535 -115.955998 3 10830ft 187kts
09-Oct-20 13:58 45.316949 -115.985903 195 10983ft 163kts
09-Oct-20 13:59 45.269358 -115.973688 198 10978ft 168kts
09-Oct-20 14:00 45.222620 -115.995029 205 10939ft 163kts
09-Oct-20 14:01 45.174177 -116.011099 192 10280ft 187kts
09-Oct-20 14:02 45.120667 -116.026467 198 9522ft 180kts
09-Oct-20 14:03 45.070631 -116.045102 195 9042ft 188kts
09-Oct-20 14:04 45.020124 -116.063114 189 8200ft 173kts
09-Oct-20 14:06 44.970453 -116.079386 197 6986ft 145kts
09-Oct-20 14:07 44.937505 -116.091408 194 6047ft 99kts
09-Oct-20 14:08 44.912489 -116.099867 186 5517ft 94kts
09-Oct-20 14:09 44.892570 -116.101862 174 5018ft 25kts
09-Oct-20 14:10 44.895225 -116.101204 37 5024ft 17kts
09-Oct-20 14:11 44.896014 -116.100078 259 5029ft 0kts
09-Oct-20 14:12 44.896014 -116.100078 259 5029ft 0kts
09-Oct-20 14:13 44.896014 -116.100078 259 5029ft 0kts
09-Oct-20 14:14 44.896014 -116.100078 259 5029ft 0kts
09-Oct-20 14:15 44.896014 -116.100078 259 5029ft 0kts
09-Oct-20 14:16 44.896014 -116.100078 259 5029ft 0kts
09-Oct-20 14:17 44.896014 -116.100078 259 5029ft 0kts
09-Oct-20 14:18 44.896014 -116.100078 259 5029ft 0kts
09-Oct-20 14:19 44.896014 -116.100078 259 5029ft 0kts
09-Oct-20 14:20 44.896014 -116.100078 259 5029ft 0kts
09-Oct-20 14:20 44.896014 -116.100078 259 5029ft 0kts
09-Oct-20 14:22 44.896013 -116.100085 260 5029ft 0kts
09-Oct-20 14:22 44.896778 -116.101120 271 5027ft 0kts

Navigation Log

Ident Type
Flight plan parsing failed, navigation log unavailable